sensor_id;sensor_type;location;lat;lon;timestamp;temperature;humidity
14252;DHT22;7210;51.502;10.722;2022-08-11T00:00:34;13.80;1.00
14252;DHT22;7210;51.502;10.722;2022-08-11T00:03:06;13.90;1.00
14252;DHT22;7210;51.502;10.722;2022-08-11T00:05:44;13.80;1.00
14252;DHT22;7210;51.502;10.722;2022-08-11T00:08:21;13.80;1.00
14252;DHT22;7210;51.502;10.722;2022-08-11T00:10:53;13.70;1.00
14252;DHT22;7210;51.502;10.722;2022-08-11T00:13:30;13.60;1.00
14252;DHT22;7210;51.502;10.722;2022-08-11T00:16:00;13.50;1.00
14252;DHT22;7210;51.502;10.722;2022-08-11T00:18:40;13.60;1.00
14252;DHT22;7210;51.502;10.722;2022-08-11T00:21:09;13.60;1.00
14252;DHT22;7210;51.502;10.722;2022-08-11T00:23:41;13.60;1.00
14252;DHT22;7210;51.502;10.722;2022-08-11T00:26:11;13.60;1.00
14252;DHT22;7210;51.502;10.722;2022-08-11T00:28:40;13.60;1.00
14252;DHT22;7210;51.502;10.722;2022-08-11T00:31:19;13.40;1.00
14252;DHT22;7210;51.502;10.722;2022-08-11T00:33:51;13.40;1.00
14252;DHT22;7210;51.502;10.722;2022-08-11T00:36:25;13.30;1.00
14252;DHT22;7210;51.502;10.722;2022-08-11T00:39:02;13.30;1.00
14252;DHT22;7210;51.502;10.722;2022-08-11T00:41:35;13.30;1.00
14252;DHT22;7210;51.502;10.722;2022-08-11T00:44:27;13.20;1.00
14252;DHT22;7210;51.502;10.722;2022-08-11T00:47:12;13.20;1.00
14252;DHT22;7210;51.502;10.722;2022-08-11T00:50:02;13.10;1.00
14252;DHT22;7210;51.502;10.722;2022-08-11T00:53:04;13.10;1.00
14252;DHT22;7210;51.502;10.722;2022-08-11T00:59:47;13.00;1.00
14252;DHT22;7210;51.502;10.722;2022-08-11T01:02:46;12.90;1.00
14252;DHT22;7210;51.502;10.722;2022-08-11T01:06:01;12.90;1.00
14252;DHT22;7210;51.502;10.722;2022-08-11T01:09:12;12.80;1.00
14252;DHT22;7210;51.502;10.722;2022-08-11T01:15:38;12.70;1.00
14252;DHT22;7210;51.502;10.722;2022-08-11T01:18:47;12.70;1.00
14252;DHT22;7210;51.502;10.722;2022-08-11T01:22:17;12.70;1.00
14252;DHT22;7210;51.502;10.722;2022-08-11T01:39:32;12.50;1.00
14252;DHT22;7210;51.502;10.722;2022-08-11T01:46:14;12.30;1.00
14252;DHT22;7210;51.502;10.722;2022-08-11T01:48:56;12.30;1.00
14252;DHT22;7210;51.502;10.722;2022-08-11T01:51:47;12.30;1.00
14252;DHT22;7210;51.502;10.722;2022-08-11T01:54:31;12.30;1.00
14252;DHT22;7210;51.502;10.722;2022-08-11T01:57:15;12.20;1.00
14252;DHT22;7210;51.502;10.722;2022-08-11T02:00:06;12.20;1.00
14252;DHT22;7210;51.502;10.722;2022-08-11T02:02:46;12.30;1.00
14252;DHT22;7210;51.502;10.722;2022-08-11T02:08:43;12.30;1.00
14252;DHT22;7210;51.502;10.722;2022-08-11T02:11:24;12.30;1.00
14252;DHT22;7210;51.502;10.722;2022-08-11T02:14:02;12.40;1.00
14252;DHT22;7210;51.502;10.722;2022-08-11T02:19:40;12.30;1.00
14252;DHT22;7210;51.502;10.722;2022-08-11T02:22:41;12.20;1.00
14252;DHT22;7210;51.502;10.722;2022-08-11T02:25:45;12.30;1.00
14252;DHT22;7210;51.502;10.722;2022-08-11T02:28:28;12.30;1.00
14252;DHT22;7210;51.502;10.722;2022-08-11T02:31:12;12.20;1.00
14252;DHT22;7210;51.502;10.722;2022-08-11T02:34:08;12.10;1.00
14252;DHT22;7210;51.502;10.722;2022-08-11T02:36:51;12.20;1.00
14252;DHT22;7210;51.502;10.722;2022-08-11T02:39:30;12.10;1.00
14252;DHT22;7210;51.502;10.722;2022-08-11T02:42:25;12.00;1.00
14252;DHT22;7210;51.502;10.722;2022-08-11T02:45:10;12.00;1.00
14252;DHT22;7210;51.502;10.722;2022-08-11T02:47:51;11.90;1.00
14252;DHT22;7210;51.502;10.722;2022-08-11T02:50:59;11.80;1.00
14252;DHT22;7210;51.502;10.722;2022-08-11T02:53:38;11.80;1.00
14252;DHT22;7210;51.502;10.722;2022-08-11T02:56:31;11.80;1.00
14252;DHT22;7210;51.502;10.722;2022-08-11T02:59:26;11.90;1.00
14252;DHT22;7210;51.502;10.722;2022-08-11T03:05:37;11.90;1.00
14252;DHT22;7210;51.502;10.722;2022-08-11T03:08:35;11.80;1.00
14252;DHT22;7210;51.502;10.722;2022-08-11T03:11:21;11.80;1.00
14252;DHT22;7210;51.502;10.722;2022-08-11T03:14:19;11.70;1.00
14252;DHT22;7210;51.502;10.722;2022-08-11T03:17:24;11.60;1.00
14252;DHT22;7210;51.502;10.722;2022-08-11T03:20:13;11.50;1.00
14252;DHT22;7210;51.502;10.722;2022-08-11T03:22:59;11.50;1.00
14252;DHT22;7210;51.502;10.722;2022-08-11T03:25:41;11.50;1.00
14252;DHT22;7210;51.502;10.722;2022-08-11T03:28:25;11.50;1.00
14252;DHT22;7210;51.502;10.722;2022-08-11T03:31:07;11.60;1.00
14252;DHT22;7210;51.502;10.722;2022-08-11T03:33:49;11.50;1.00
14252;DHT22;7210;51.502;10.722;2022-08-11T03:37:04;11.50;1.00
14252;DHT22;7210;51.502;10.722;2022-08-11T03:40:06;11.50;1.00
14252;DHT22;7210;51.502;10.722;2022-08-11T03:42:46;11.50;1.00
14252;DHT22;7210;51.502;10.722;2022-08-11T03:45:24;11.50;1.00
14252;DHT22;7210;51.502;10.722;2022-08-11T03:48:08;11.50;1.00
14252;DHT22;7210;51.502;10.722;2022-08-11T03:50:57;11.50;1.00
14252;DHT22;7210;51.502;10.722;2022-08-11T03:53:50;11.50;1.00
14252;DHT22;7210;51.502;10.722;2022-08-11T04:00:21;11.40;1.00
14252;DHT22;7210;51.502;10.722;2022-08-11T04:03:59;11.30;1.00
14252;DHT22;7210;51.502;10.722;2022-08-11T04:07:12;11.20;1.00
14252;DHT22;7210;51.502;10.722;2022-08-11T04:17:50;11.10;1.00
14252;DHT22;7210;51.502;10.722;2022-08-11T04:20:55;11.10;1.00
14252;DHT22;7210;51.502;10.722;2022-08-11T04:27:42;11.10;1.00
14252;DHT22;7210;51.502;10.722;2022-08-11T04:30:55;11.10;1.00
14252;DHT22;7210;51.502;10.722;2022-08-11T04:34:03;11.20;1.00
14252;DHT22;7210;51.502;10.722;2022-08-11T04:40:25;11.20;1.00
14252;DHT22;7210;51.502;10.722;2022-08-11T04:46:52;11.30;1.00
14252;DHT22;7210;51.502;10.722;2022-08-11T04:49:37;11.30;1.00
14252;DHT22;7210;51.502;10.722;2022-08-11T04:53:02;11.40;1.00
14252;DHT22;7210;51.502;10.722;2022-08-11T04:56:07;11.50;1.00
14252;DHT22;7210;51.502;10.722;2022-08-11T04:59:13;11.60;1.00
14252;DHT22;7210;51.502;10.722;2022-08-11T05:02:56;11.70;1.00
14252;DHT22;7210;51.502;10.722;2022-08-11T05:06:23;11.90;1.00
14252;DHT22;7210;51.502;10.722;2022-08-11T05:12:35;12.10;1.00
14252;DHT22;7210;51.502;10.722;2022-08-11T05:15:12;12.20;1.00
14252;DHT22;7210;51.502;10.722;2022-08-11T05:18:04;12.30;1.00
14252;DHT22;7210;51.502;10.722;2022-08-11T05:20:54;12.50;1.00
14252;DHT22;7210;51.502;10.722;2022-08-11T05:23:45;12.60;1.00
14252;DHT22;7210;51.502;10.722;2022-08-11T05:26:48;12.70;1.00
14252;DHT22;7210;51.502;10.722;2022-08-11T05:29:44;12.80;1.00
14252;DHT22;7210;51.502;10.722;2022-08-11T05:32:40;13.00;1.00
14252;DHT22;7210;51.502;10.722;2022-08-11T05:35:31;13.20;1.00
14252;DHT22;7210;51.502;10.722;2022-08-11T05:38:09;13.30;1.00
14252;DHT22;7210;51.502;10.722;2022-08-11T05:41:02;13.40;1.00
14252;DHT22;7210;51.502;10.722;2022-08-11T05:43:49;13.60;1.00
14252;DHT22;7210;51.502;10.722;2022-08-11T05:46:44;13.80;1.00
14252;DHT22;7210;51.502;10.722;2022-08-11T05:49:32;14.00;1.00
14252;DHT22;7210;51.502;10.722;2022-08-11T05:52:22;14.10;1.00
14252;DHT22;7210;51.502;10.722;2022-08-11T05:55:09;14.30;1.00
14252;DHT22;7210;51.502;10.722;2022-08-11T05:57:59;14.50;1.00
14252;DHT22;7210;51.502;10.722;2022-08-11T06:00:31;14.60;1.00
14252;DHT22;7210;51.502;10.722;2022-08-11T06:03:18;14.80;1.00
14252;DHT22;7210;51.502;10.722;2022-08-11T06:05:52;15.00;1.00
14252;DHT22;7210;51.502;10.722;2022-08-11T06:08:28;15.10;1.00
14252;DHT22;7210;51.502;10.722;2022-08-11T06:11:03;15.30;1.00
14252;DHT22;7210;51.502;10.722;2022-08-11T06:13:33;15.60;1.00
14252;DHT22;7210;51.502;10.722;2022-08-11T06:16:02;15.70;1.00
14252;DHT22;7210;51.502;10.722;2022-08-11T06:18:34;15.90;1.00
14252;DHT22;7210;51.502;10.722;2022-08-11T06:21:08;16.00;1.00
14252;DHT22;7210;51.502;10.722;2022-08-11T06:23:41;16.40;1.00
14252;DHT22;7210;51.502;10.722;2022-08-11T06:26:12;16.50;1.00
14252;DHT22;7210;51.502;10.722;2022-08-11T06:28:43;16.70;1.00
14252;DHT22;7210;51.502;10.722;2022-08-11T06:31:14;16.90;1.00
14252;DHT22;7210;51.502;10.722;2022-08-11T06:33:55;17.00;1.00
14252;DHT22;7210;51.502;10.722;2022-08-11T06:36:43;17.10;1.00
14252;DHT22;7210;51.502;10.722;2022-08-11T06:39:28;17.30;1.00
14252;DHT22;7210;51.502;10.722;2022-08-11T06:42:07;17.30;1.00
14252;DHT22;7210;51.502;10.722;2022-08-11T06:44:43;17.40;1.00
14252;DHT22;7210;51.502;10.722;2022-08-11T06:47:21;17.60;1.00
14252;DHT22;7210;51.502;10.722;2022-08-11T06:49:50;17.80;1.00
14252;DHT22;7210;51.502;10.722;2022-08-11T06:52:39;17.90;1.00
14252;DHT22;7210;51.502;10.722;2022-08-11T06:55:11;18.10;1.00
14252;DHT22;7210;51.502;10.722;2022-08-11T06:58:00;18.20;1.00
14252;DHT22;7210;51.502;10.722;2022-08-11T07:00:48;18.20;1.00
14252;DHT22;7210;51.502;10.722;2022-08-11T07:03:21;18.40;1.00
14252;DHT22;7210;51.502;10.722;2022-08-11T07:05:54;18.50;1.00
14252;DHT22;7210;51.502;10.722;2022-08-11T07:12:37;18.90;1.00
14252;DHT22;7210;51.502;10.722;2022-08-11T07:15:30;19.10;1.00
14252;DHT22;7210;51.502;10.722;2022-08-11T07:18:10;19.20;1.00
14252;DHT22;7210;51.502;10.722;2022-08-11T07:21:14;19.40;1.00
14252;DHT22;7210;51.502;10.722;2022-08-11T07:24:14;19.60;1.00
14252;DHT22;7210;51.502;10.722;2022-08-11T07:27:05;19.70;1.00
14252;DHT22;7210;51.502;10.722;2022-08-11T07:29:56;20.00;1.00
14252;DHT22;7210;51.502;10.722;2022-08-11T07:32:29;20.20;1.00
14252;DHT22;7210;51.502;10.722;2022-08-11T07:35:07;20.30;1.00
14252;DHT22;7210;51.502;10.722;2022-08-11T07:37:40;20.70;1.00
14252;DHT22;7210;51.502;10.722;2022-08-11T07:40:10;21.00;3.30
14252;DHT22;7210;51.502;10.722;2022-08-11T07:42:38;21.20;7.90
14252;DHT22;7210;51.502;10.722;2022-08-11T07:45:11;21.30;7.60
14252;DHT22;7210;51.502;10.722;2022-08-11T07:47:57;21.40;8.10
14252;DHT22;7210;51.502;10.722;2022-08-11T07:50:44;21.40;9.20
14252;DHT22;7210;51.502;10.722;2022-08-11T07:53:34;21.50;8.90
14252;DHT22;7210;51.502;10.722;2022-08-11T07:56:04;21.60;13.20
14252;DHT22;7210;51.502;10.722;2022-08-11T07:58:34;21.70;12.20
14252;DHT22;7210;51.502;10.722;2022-08-11T08:01:21;21.90;13.90
14252;DHT22;7210;51.502;10.722;2022-08-11T08:04:09;21.90;16.60
14252;DHT22;7210;51.502;10.722;2022-08-11T08:07:00;21.90;16.40
14252;DHT22;7210;51.502;10.722;2022-08-11T08:09:49;22.00;17.20
14252;DHT22;7210;51.502;10.722;2022-08-11T08:12:34;22.10;17.50
14252;DHT22;7210;51.502;10.722;2022-08-11T08:15:21;22.20;19.40
14252;DHT22;7210;51.502;10.722;2022-08-11T08:18:07;22.30;22.40
14252;DHT22;7210;51.502;10.722;2022-08-11T08:20:38;22.50;24.90
14252;DHT22;7210;51.502;10.722;2022-08-11T08:23:11;22.60;24.80
14252;DHT22;7210;51.502;10.722;2022-08-11T08:25:42;22.60;25.60
14252;DHT22;7210;51.502;10.722;2022-08-11T08:28:13;22.70;26.00
14252;DHT22;7210;51.502;10.722;2022-08-11T08:30:43;22.80;27.50
14252;DHT22;7210;51.502;10.722;2022-08-11T08:33:16;22.90;29.50
14252;DHT22;7210;51.502;10.722;2022-08-11T08:35:47;23.10;30.40
14252;DHT22;7210;51.502;10.722;2022-08-11T08:38:36;23.20;32.50
14252;DHT22;7210;51.502;10.722;2022-08-11T08:41:07;23.40;36.50
14252;DHT22;7210;51.502;10.722;2022-08-11T08:43:35;23.50;37.20
14252;DHT22;7210;51.502;10.722;2022-08-11T08:46:06;23.60;44.90
14252;DHT22;7210;51.502;10.722;2022-08-11T08:48:36;23.70;42.00
14252;DHT22;7210;51.502;10.722;2022-08-11T08:51:10;23.90;45.10
14252;DHT22;7210;51.502;10.722;2022-08-11T08:54:08;24.00;47.40
14252;DHT22;7210;51.502;10.722;2022-08-11T08:56:54;24.10;47.60
14252;DHT22;7210;51.502;10.722;2022-08-11T08:59:25;24.20;48.90
14252;DHT22;7210;51.502;10.722;2022-08-11T09:01:57;24.40;53.90
14252;DHT22;7210;51.502;10.722;2022-08-11T09:04:28;24.50;56.10
14252;DHT22;7210;51.502;10.722;2022-08-11T09:06:59;24.60;55.00
14252;DHT22;7210;51.502;10.722;2022-08-11T09:09:33;24.70;59.30
14252;DHT22;7210;51.502;10.722;2022-08-11T09:12:04;24.80;59.80
14252;DHT22;7210;51.502;10.722;2022-08-11T09:14:35;24.90;64.30
14252;DHT22;7210;51.502;10.722;2022-08-11T09:17:22;25.10;67.60
14252;DHT22;7210;51.502;10.722;2022-08-11T09:19:55;25.10;69.50
14252;DHT22;7210;51.502;10.722;2022-08-11T09:22:25;25.10;67.80
14252;DHT22;7210;51.502;10.722;2022-08-11T09:25:12;25.30;67.80
14252;DHT22;7210;51.502;10.722;2022-08-11T09:28:00;25.50;74.40
14252;DHT22;7210;51.502;10.722;2022-08-11T09:30:31;25.80;80.80
14252;DHT22;7210;51.502;10.722;2022-08-11T09:33:01;26.00;84.60
14252;DHT22;7210;51.502;10.722;2022-08-11T09:35:33;25.90;81.70
14252;DHT22;7210;51.502;10.722;2022-08-11T09:38:06;26.00;82.80
14252;DHT22;7210;51.502;10.722;2022-08-11T09:40:56;26.20;85.90
14252;DHT22;7210;51.502;10.722;2022-08-11T09:43:34;26.40;93.10
14252;DHT22;7210;51.502;10.722;2022-08-11T09:46:26;26.40;91.60
14252;DHT22;7210;51.502;10.722;2022-08-11T09:48:59;26.50;92.40
14252;DHT22;7210;51.502;10.722;2022-08-11T09:51:33;26.60;99.70
14252;DHT22;7210;51.502;10.722;2022-08-11T09:54:06;26.70;99.70
14252;DHT22;7210;51.502;10.722;2022-08-11T09:56:35;26.80;99.90
14252;DHT22;7210;51.502;10.722;2022-08-11T09:59:23;26.90;99.90
14252;DHT22;7210;51.502;10.722;2022-08-11T10:01:56;26.90;99.90
14252;DHT22;7210;51.502;10.722;2022-08-11T10:04:34;27.10;99.90
14252;DHT22;7210;51.502;10.722;2022-08-11T10:07:13;27.10;99.90
14252;DHT22;7210;51.502;10.722;2022-08-11T10:09:50;27.10;99.90
14252;DHT22;7210;51.502;10.722;2022-08-11T10:12:25;27.30;99.90
14252;DHT22;7210;51.502;10.722;2022-08-11T10:15:02;27.50;99.90
14252;DHT22;7210;51.502;10.722;2022-08-11T10:17:56;27.50;99.90
14252;DHT22;7210;51.502;10.722;2022-08-11T10:20:46;27.60;99.90
14252;DHT22;7210;51.502;10.722;2022-08-11T10:23:16;27.70;99.90
14252;DHT22;7210;51.502;10.722;2022-08-11T10:26:04;27.90;99.90
14252;DHT22;7210;51.502;10.722;2022-08-11T10:28:52;28.20;99.90
14252;DHT22;7210;51.502;10.722;2022-08-11T10:31:21;28.30;99.90
14252;DHT22;7210;51.502;10.722;2022-08-11T10:34:07;28.40;99.90
14252;DHT22;7210;51.502;10.722;2022-08-11T10:36:37;28.50;99.90
14252;DHT22;7210;51.502;10.722;2022-08-11T10:39:13;28.50;99.90
14252;DHT22;7210;51.502;10.722;2022-08-11T10:41:43;28.50;99.90
14252;DHT22;7210;51.502;10.722;2022-08-11T10:44:30;28.70;99.90
14252;DHT22;7210;51.502;10.722;2022-08-11T10:47:03;28.80;99.90
14252;DHT22;7210;51.502;10.722;2022-08-11T10:49:49;28.70;99.90
14252;DHT22;7210;51.502;10.722;2022-08-11T10:52:39;28.90;99.90
14252;DHT22;7210;51.502;10.722;2022-08-11T10:55:25;28.90;99.90
14252;DHT22;7210;51.502;10.722;2022-08-11T10:58:11;29.00;99.90
14252;DHT22;7210;51.502;10.722;2022-08-11T11:00:58;28.90;99.90
14252;DHT22;7210;51.502;10.722;2022-08-11T11:03:30;29.00;99.90
14252;DHT22;7210;51.502;10.722;2022-08-11T11:06:05;29.10;99.90
14252;DHT22;7210;51.502;10.722;2022-08-11T11:08:40;29.30;99.90
14252;DHT22;7210;51.502;10.722;2022-08-11T11:11:20;29.40;99.90
14252;DHT22;7210;51.502;10.722;2022-08-11T11:14:15;29.40;99.90
14252;DHT22;7210;51.502;10.722;2022-08-11T11:17:04;29.50;99.90
14252;DHT22;7210;51.502;10.722;2022-08-11T11:20:04;29.50;99.90
14252;DHT22;7210;51.502;10.722;2022-08-11T11:22:33;29.70;99.90
14252;DHT22;7210;51.502;10.722;2022-08-11T11:25:20;29.70;99.90
14252;DHT22;7210;51.502;10.722;2022-08-11T11:28:03;29.90;99.90
14252;DHT22;7210;51.502;10.722;2022-08-11T11:30:54;29.90;99.90
14252;DHT22;7210;51.502;10.722;2022-08-11T11:33:41;30.00;99.90
14252;DHT22;7210;51.502;10.722;2022-08-11T11:36:30;30.20;99.90
14252;DHT22;7210;51.502;10.722;2022-08-11T11:39:06;30.30;99.90
14252;DHT22;7210;51.502;10.722;2022-08-11T11:41:35;30.40;99.90
14252;DHT22;7210;51.502;10.722;2022-08-11T11:44:04;30.30;99.90
14252;DHT22;7210;51.502;10.722;2022-08-11T11:46:32;30.50;99.90
14252;DHT22;7210;51.502;10.722;2022-08-11T11:49:02;30.70;99.90
14252;DHT22;7210;51.502;10.722;2022-08-11T11:51:36;30.90;99.90
14252;DHT22;7210;51.502;10.722;2022-08-11T11:54:04;31.00;99.90
14252;DHT22;7210;51.502;10.722;2022-08-11T11:56:33;31.00;99.90
14252;DHT22;7210;51.502;10.722;2022-08-11T11:59:01;31.00;99.90
14252;DHT22;7210;51.502;10.722;2022-08-11T12:01:47;31.00;99.90
14252;DHT22;7210;51.502;10.722;2022-08-11T12:04:15;31.00;99.90
14252;DHT22;7210;51.502;10.722;2022-08-11T12:06:52;30.90;99.90
14252;DHT22;7210;51.502;10.722;2022-08-11T12:09:45;31.20;99.90
14252;DHT22;7210;51.502;10.722;2022-08-11T12:12:23;31.10;99.90
14252;DHT22;7210;51.502;10.722;2022-08-11T12:15:09;31.30;99.90
14252;DHT22;7210;51.502;10.722;2022-08-11T12:17:37;31.40;99.90
14252;DHT22;7210;51.502;10.722;2022-08-11T12:20:06;31.50;99.90
14252;DHT22;7210;51.502;10.722;2022-08-11T12:22:36;31.60;99.90
14252;DHT22;7210;51.502;10.722;2022-08-11T12:25:21;31.50;99.90
14252;DHT22;7210;51.502;10.722;2022-08-11T12:28:08;31.60;99.90
14252;DHT22;7210;51.502;10.722;2022-08-11T12:30:37;31.70;99.90
14252;DHT22;7210;51.502;10.722;2022-08-11T12:33:06;31.50;99.90
14252;DHT22;7210;51.502;10.722;2022-08-11T12:35:34;31.60;99.90
14252;DHT22;7210;51.502;10.722;2022-08-11T12:38:05;31.60;99.90
14252;DHT22;7210;51.502;10.722;2022-08-11T12:40:36;31.60;99.90
14252;DHT22;7210;51.502;10.722;2022-08-11T12:43:24;31.60;99.90
14252;DHT22;7210;51.502;10.722;2022-08-11T12:46:21;31.40;99.90
14252;DHT22;7210;51.502;10.722;2022-08-11T12:48:55;31.30;99.90
14252;DHT22;7210;51.502;10.722;2022-08-11T12:51:48;31.30;99.90
14252;DHT22;7210;51.502;10.722;2022-08-11T12:54:28;31.40;99.90
14252;DHT22;7210;51.502;10.722;2022-08-11T12:57:04;31.50;99.90
14252;DHT22;7210;51.502;10.722;2022-08-11T12:59:56;31.80;99.90
14252;DHT22;7210;51.502;10.722;2022-08-11T13:02:44;31.90;99.90
14252;DHT22;7210;51.502;10.722;2022-08-11T13:05:30;31.80;99.90
14252;DHT22;7210;51.502;10.722;2022-08-11T13:07:59;31.90;99.90
14252;DHT22;7210;51.502;10.722;2022-08-11T13:10:31;32.10;99.90
14252;DHT22;7210;51.502;10.722;2022-08-11T13:13:25;32.00;99.90
14252;DHT22;7210;51.502;10.722;2022-08-11T13:15:53;31.90;99.90
14252;DHT22;7210;51.502;10.722;2022-08-11T13:18:21;31.90;99.90
14252;DHT22;7210;51.502;10.722;2022-08-11T13:20:51;31.70;99.90
14252;DHT22;7210;51.502;10.722;2022-08-11T13:23:20;31.80;99.90
14252;DHT22;7210;51.502;10.722;2022-08-11T13:25:52;31.90;99.90
14252;DHT22;7210;51.502;10.722;2022-08-11T13:28:21;31.90;99.90
14252;DHT22;7210;51.502;10.722;2022-08-11T13:30:50;31.80;99.90
14252;DHT22;7210;51.502;10.722;2022-08-11T13:33:46;31.80;99.90
14252;DHT22;7210;51.502;10.722;2022-08-11T13:36:19;32.00;99.90
14252;DHT22;7210;51.502;10.722;2022-08-11T13:38:52;32.00;99.90
14252;DHT22;7210;51.502;10.722;2022-08-11T13:41:25;32.20;99.90
14252;DHT22;7210;51.502;10.722;2022-08-11T13:44:10;32.40;99.90
14252;DHT22;7210;51.502;10.722;2022-08-11T13:46:39;32.40;99.90
14252;DHT22;7210;51.502;10.722;2022-08-11T13:49:09;32.40;99.90
14252;DHT22;7210;51.502;10.722;2022-08-11T13:51:37;32.30;99.90
14252;DHT22;7210;51.502;10.722;2022-08-11T13:54:07;32.40;99.90
14252;DHT22;7210;51.502;10.722;2022-08-11T13:56:41;32.30;99.90
14252;DHT22;7210;51.502;10.722;2022-08-11T13:59:11;32.40;99.90
14252;DHT22;7210;51.502;10.722;2022-08-11T14:01:43;32.40;99.90
14252;DHT22;7210;51.502;10.722;2022-08-11T14:04:18;32.50;99.90
14252;DHT22;7210;51.502;10.722;2022-08-11T14:06:53;32.60;99.90
14252;DHT22;7210;51.502;10.722;2022-08-11T14:09:27;32.60;99.90
14252;DHT22;7210;51.502;10.722;2022-08-11T14:12:02;32.60;99.90
14252;DHT22;7210;51.502;10.722;2022-08-11T14:15:00;32.70;99.90
14252;DHT22;7210;51.502;10.722;2022-08-11T14:17:33;32.60;99.90
14252;DHT22;7210;51.502;10.722;2022-08-11T14:20:07;32.50;99.90
14252;DHT22;7210;51.502;10.722;2022-08-11T14:22:40;32.50;99.90
14252;DHT22;7210;51.502;10.722;2022-08-11T14:25:09;32.40;99.90
14252;DHT22;7210;51.502;10.722;2022-08-11T14:27:43;32.30;99.90
14252;DHT22;7210;51.502;10.722;2022-08-11T14:30:14;31.90;99.90
14252;DHT22;7210;51.502;10.722;2022-08-11T14:32:56;32.00;99.90
14252;DHT22;7210;51.502;10.722;2022-08-11T14:35:24;32.10;99.90
14252;DHT22;7210;51.502;10.722;2022-08-11T14:37:55;32.20;99.90
14252;DHT22;7210;51.502;10.722;2022-08-11T14:40:24;32.40;99.90
14252;DHT22;7210;51.502;10.722;2022-08-11T14:43:11;32.40;99.90
14252;DHT22;7210;51.502;10.722;2022-08-11T14:45:56;32.30;99.90
14252;DHT22;7210;51.502;10.722;2022-08-11T14:48:41;32.40;99.90
14252;DHT22;7210;51.502;10.722;2022-08-11T14:51:09;32.30;99.90
14252;DHT22;7210;51.502;10.722;2022-08-11T14:53:37;32.30;99.90
14252;DHT22;7210;51.502;10.722;2022-08-11T14:56:05;32.30;99.90
14252;DHT22;7210;51.502;10.722;2022-08-11T14:58:51;32.30;99.90
14252;DHT22;7210;51.502;10.722;2022-08-11T15:01:18;32.40;99.90
14252;DHT22;7210;51.502;10.722;2022-08-11T15:04:03;32.10;99.90
14252;DHT22;7210;51.502;10.722;2022-08-11T15:06:31;32.30;99.90
14252;DHT22;7210;51.502;10.722;2022-08-11T15:08:58;32.20;99.90
14252;DHT22;7210;51.502;10.722;2022-08-11T15:11:29;32.30;99.90
14252;DHT22;7210;51.502;10.722;2022-08-11T15:14:16;32.10;99.90
14252;DHT22;7210;51.502;10.722;2022-08-11T15:16:59;32.20;99.90
14252;DHT22;7210;51.502;10.722;2022-08-11T15:19:34;32.00;99.90
14252;DHT22;7210;51.502;10.722;2022-08-11T15:22:23;31.90;99.90
14252;DHT22;7210;51.502;10.722;2022-08-11T15:25:08;32.10;99.90
14252;DHT22;7210;51.502;10.722;2022-08-11T15:27:35;32.30;99.90
14252;DHT22;7210;51.502;10.722;2022-08-11T15:30:24;32.30;99.90
14252;DHT22;7210;51.502;10.722;2022-08-11T15:33:11;32.30;99.90
14252;DHT22;7210;51.502;10.722;2022-08-11T15:36:02;32.50;99.90
14252;DHT22;7210;51.502;10.722;2022-08-11T15:38:54;32.30;99.90
14252;DHT22;7210;51.502;10.722;2022-08-11T15:41:40;32.40;99.90
14252;DHT22;7210;51.502;10.722;2022-08-11T15:44:33;32.40;99.90
14252;DHT22;7210;51.502;10.722;2022-08-11T15:47:28;32.10;99.90
14252;DHT22;7210;51.502;10.722;2022-08-11T15:50:03;32.10;99.90
14252;DHT22;7210;51.502;10.722;2022-08-11T15:52:34;32.20;99.90
14252;DHT22;7210;51.502;10.722;2022-08-11T15:55:13;32.20;99.90
14252;DHT22;7210;51.502;10.722;2022-08-11T15:57:46;32.20;99.90
14252;DHT22;7210;51.502;10.722;2022-08-11T16:00:34;32.00;99.90
14252;DHT22;7210;51.502;10.722;2022-08-11T16:03:24;31.90;99.90
14252;DHT22;7210;51.502;10.722;2022-08-11T16:06:10;31.90;99.90
14252;DHT22;7210;51.502;10.722;2022-08-11T16:08:39;31.70;99.90
14252;DHT22;7210;51.502;10.722;2022-08-11T16:11:10;31.70;99.90
14252;DHT22;7210;51.502;10.722;2022-08-11T16:13:39;31.70;99.90
14252;DHT22;7210;51.502;10.722;2022-08-11T16:16:26;31.70;99.90
14252;DHT22;7210;51.502;10.722;2022-08-11T16:18:57;31.50;99.90
14252;DHT22;7210;51.502;10.722;2022-08-11T16:21:33;31.30;99.90
14252;DHT22;7210;51.502;10.722;2022-08-11T16:24:06;31.20;99.90
14252;DHT22;7210;51.502;10.722;2022-08-11T16:26:40;30.80;99.90
14252;DHT22;7210;51.502;10.722;2022-08-11T16:29:10;30.60;99.90
14252;DHT22;7210;51.502;10.722;2022-08-11T16:31:39;30.50;99.90
14252;DHT22;7210;51.502;10.722;2022-08-11T16:34:09;30.30;99.90
14252;DHT22;7210;51.502;10.722;2022-08-11T16:36:53;30.30;99.90
14252;DHT22;7210;51.502;10.722;2022-08-11T16:39:44;30.10;99.90
14252;DHT22;7210;51.502;10.722;2022-08-11T16:42:13;30.20;99.90
14252;DHT22;7210;51.502;10.722;2022-08-11T16:44:59;30.10;99.90
14252;DHT22;7210;51.502;10.722;2022-08-11T16:47:45;29.80;99.90
14252;DHT22;7210;51.502;10.722;2022-08-11T16:50:15;29.70;99.90
14252;DHT22;7210;51.502;10.722;2022-08-11T16:52:43;29.50;99.90
14252;DHT22;7210;51.502;10.722;2022-08-11T16:55:10;29.30;99.90
14252;DHT22;7210;51.502;10.722;2022-08-11T16:57:40;29.20;99.90
14252;DHT22;7210;51.502;10.722;2022-08-11T17:00:26;29.10;99.90
14252;DHT22;7210;51.502;10.722;2022-08-11T17:02:58;28.90;99.90
14252;DHT22;7210;51.502;10.722;2022-08-11T17:05:56;28.90;99.90
14252;DHT22;7210;51.502;10.722;2022-08-11T17:08:46;28.80;99.90
14252;DHT22;7210;51.502;10.722;2022-08-11T17:11:38;28.70;99.90
14252;DHT22;7210;51.502;10.722;2022-08-11T17:14:36;28.50;99.90
14252;DHT22;7210;51.502;10.722;2022-08-11T17:17:15;28.40;99.90
14252;DHT22;7210;51.502;10.722;2022-08-11T17:19:56;28.30;99.90
14252;DHT22;7210;51.502;10.722;2022-08-11T17:22:33;28.30;99.90
14252;DHT22;7210;51.502;10.722;2022-08-11T17:25:22;28.30;99.90
14252;DHT22;7210;51.502;10.722;2022-08-11T17:27:53;28.30;99.90
14252;DHT22;7210;51.502;10.722;2022-08-11T17:30:22;28.20;99.90
14252;DHT22;7210;51.502;10.722;2022-08-11T17:33:13;28.10;99.90
14252;DHT22;7210;51.502;10.722;2022-08-11T17:35:59;27.90;99.90
14252;DHT22;7210;51.502;10.722;2022-08-11T17:38:31;27.90;99.90
14252;DHT22;7210;51.502;10.722;2022-08-11T17:41:02;27.80;99.90
14252;DHT22;7210;51.502;10.722;2022-08-11T17:43:50;27.80;99.90
14252;DHT22;7210;51.502;10.722;2022-08-11T17:46:39;27.80;99.90
14252;DHT22;7210;51.502;10.722;2022-08-11T17:49:29;27.70;99.90
14252;DHT22;7210;51.502;10.722;2022-08-11T17:52:04;27.60;99.90
14252;DHT22;7210;51.502;10.722;2022-08-11T17:54:53;27.50;99.90
14252;DHT22;7210;51.502;10.722;2022-08-11T17:57:40;27.40;99.90
14252;DHT22;7210;51.502;10.722;2022-08-11T18:00:25;27.30;99.90
14252;DHT22;7210;51.502;10.722;2022-08-11T18:02:54;27.30;99.90
14252;DHT22;7210;51.502;10.722;2022-08-11T18:05:43;27.20;99.90
14252;DHT22;7210;51.502;10.722;2022-08-11T18:08:15;27.10;99.90
14252;DHT22;7210;51.502;10.722;2022-08-11T18:11:09;27.00;99.90
14252;DHT22;7210;51.502;10.722;2022-08-11T18:13:56;26.80;99.90